Kythira, Greece
Current Conditions -  °F | °C
As of 4:20 PM on Monday 20 Oct 2014 (Local Time) from LGKL Reporting Station
Clear Clear  
Wind Chill: 73°   Ceiling: Unl
Heat Index: 73°   Visibility: 6mi
Dew Point: 52°   Wind: 7mph
Humidity: 47%   Direction: 160°SSE
Pressure: 30.06"   Gusts: NA
Location:  36.26°N, 23°E
Report Text: LGKL 201320Z 16006KT CAVOK 23/11 Q1018
Loading
Personal Weather Stations






























Interactive Weather Map
Tropical Storm Tracking
New forecast layout! Learn more

10-Day Weather Forecast

Advertisements
Track Severe Weather on mobile